createdAt,value
2022-11-25T00:00:02.987Z,44
2022-11-25T00:15:03.059Z,44
2022-11-25T00:30:03.110Z,44
2022-11-25T00:45:03.195Z,44.5
2022-11-25T01:00:03.251Z,44.5
2022-11-25T01:15:04.385Z,44.5
2022-11-25T01:30:03.263Z,44.5
2022-11-25T01:45:05.307Z,44
2022-11-25T02:00:02.046Z,44.5
2022-11-25T02:15:05.275Z,44.5
2022-11-25T02:30:04.994Z,44.5
2022-11-25T03:00:04.022Z,44
2022-11-25T03:15:01.904Z,44
2022-11-25T03:30:04.152Z,44
2022-11-25T03:45:04.030Z,44
2022-11-25T04:00:05.940Z,44
2022-11-25T04:15:06.142Z,44
2022-11-25T04:30:05.274Z,44
2022-11-25T04:45:03.026Z,44
2022-11-25T05:00:02.092Z,44
2022-11-25T05:15:02.315Z,44
2022-11-25T05:30:05.967Z,43.5
2022-11-25T05:45:04.073Z,43
2022-11-25T06:00:06.007Z,42.5
2022-11-25T06:15:05.176Z,43
2022-11-25T06:30:01.980Z,43
2022-11-25T06:45:05.052Z,42.5
2022-11-25T07:00:06.424Z,41.5
2022-11-25T07:15:02.176Z,41
2022-11-25T07:30:03.249Z,41
2022-11-25T07:45:05.375Z,41
2022-11-25T08:00:04.016Z,41
2022-11-25T08:15:04.024Z,41
2022-11-25T08:30:04.992Z,41
2022-11-25T08:45:02.187Z,42.5
2022-11-25T09:15:05.380Z,42
2022-11-25T09:30:05.133Z,41.5
2022-11-25T09:45:01.912Z,40.5
2022-11-25T10:00:03.130Z,40.5
2022-11-25T10:15:02.180Z,40.5
2022-11-25T10:30:05.827Z,40
2022-11-25T10:45:03.973Z,40
2022-11-25T11:00:01.895Z,40.5
2022-11-25T11:15:04.110Z,40.5
2022-11-25T11:30:02.045Z,40.5
2022-11-25T11:45:02.246Z,40.5
2022-11-25T12:00:02.888Z,40.5
2022-11-25T12:15:01.992Z,42
2022-11-25T12:30:03.167Z,42
2022-11-25T12:45:04.237Z,42
2022-11-25T13:00:05.129Z,42.5
2022-11-25T13:15:05.893Z,43
2022-11-25T13:30:02.085Z,43
2022-11-25T13:45:04.235Z,42.5
2022-11-25T14:00:03.238Z,42
2022-11-25T14:15:02.224Z,42
2022-11-25T14:45:03.973Z,42
2022-11-25T15:00:04.882Z,41.5
2022-11-25T15:15:03.198Z,41.5
2022-11-25T15:30:06.459Z,41.5
2022-11-25T16:15:02.094Z,42
2022-11-25T16:30:06.475Z,42
2022-11-25T16:45:05.164Z,42
2022-11-25T17:00:05.400Z,42
2022-11-25T17:15:04.053Z,42
2022-11-25T17:30:02.083Z,42.5
2022-11-25T17:45:03.266Z,43
2022-11-25T18:00:06.391Z,43
2022-11-25T18:15:02.515Z,43
2022-11-25T18:30:04.212Z,42.5
2022-11-25T18:45:05.971Z,43
2022-11-25T19:00:06.145Z,43.5
2022-11-25T19:15:06.261Z,43
2022-11-25T19:30:05.416Z,43
2022-11-25T19:45:06.140Z,42
2022-11-25T20:00:03.353Z,42.5
2022-11-25T20:15:01.850Z,42.5
2022-11-25T20:30:04.077Z,42.5
2022-11-25T20:45:02.021Z,42.5
2022-11-25T21:00:06.260Z,43
2022-11-25T21:15:06.351Z,43.5
2022-11-25T21:30:01.945Z,44
2022-11-25T21:45:05.139Z,44.5
2022-11-25T22:00:05.900Z,44.5
2022-11-25T22:15:06.473Z,44.5
2022-11-25T22:45:03.278Z,44
2022-11-25T23:00:02.344Z,44
2022-11-25T23:15:01.875Z,44
2022-11-25T23:30:04.089Z,44
2022-11-25T23:45:03.972Z,44.5
